sensor_id;sensor_type;location;lat;lon;timestamp;P1;durP1;ratioP1;P2;durP2;ratioP2
20067;SDS011;10194;50.824;7.134;2022-07-24T00:01:39;11.40;;;9.45;;
20067;SDS011;10194;50.824;7.134;2022-07-24T00:04:05;12.45;;;9.55;;
20067;SDS011;10194;50.824;7.134;2022-07-24T00:06:32;12.63;;;9.40;;
20067;SDS011;10194;50.824;7.134;2022-07-24T00:08:58;14.10;;;9.15;;
20067;SDS011;10194;50.824;7.134;2022-07-24T00:11:24;11.25;;;8.73;;
20067;SDS011;10194;50.824;7.134;2022-07-24T00:13:50;12.98;;;10.00;;
20067;SDS011;10194;50.824;7.134;2022-07-24T00:16:16;14.82;;;10.90;;
20067;SDS011;10194;50.824;7.134;2022-07-24T00:18:42;15.27;;;11.35;;
20067;SDS011;10194;50.824;7.134;2022-07-24T00:21:07;17.05;;;11.90;;
20067;SDS011;10194;50.824;7.134;2022-07-24T00:23:33;14.27;;;10.45;;
20067;SDS011;10194;50.824;7.134;2022-07-24T00:25:59;13.93;;;10.75;;
20067;SDS011;10194;50.824;7.134;2022-07-24T00:28:26;16.42;;;11.45;;
20067;SDS011;10194;50.824;7.134;2022-07-24T00:30:52;15.15;;;11.60;;
20067;SDS011;10194;50.824;7.134;2022-07-24T00:33:17;14.27;;;10.80;;
20067;SDS011;10194;50.824;7.134;2022-07-24T00:35:43;14.02;;;10.50;;
20067;SDS011;10194;50.824;7.134;2022-07-24T00:38:09;15.43;;;10.55;;
20067;SDS011;10194;50.824;7.134;2022-07-24T00:40:35;16.80;;;10.15;;
20067;SDS011;10194;50.824;7.134;2022-07-24T00:43:02;19.90;;;11.65;;
20067;SDS011;10194;50.824;7.134;2022-07-24T00:45:29;16.90;;;11.48;;
20067;SDS011;10194;50.824;7.134;2022-07-24T00:47:55;17.30;;;10.75;;
20067;SDS011;10194;50.824;7.134;2022-07-24T00:50:21;19.50;;;11.32;;
20067;SDS011;10194;50.824;7.134;2022-07-24T00:52:47;15.10;;;10.10;;
20067;SDS011;10194;50.824;7.134;2022-07-24T00:55:14;14.75;;;11.10;;
20067;SDS011;10194;50.824;7.134;2022-07-24T00:57:40;17.13;;;11.10;;
20067;SDS011;10194;50.824;7.134;2022-07-24T01:00:09;15.00;;;11.13;;
20067;SDS011;10194;50.824;7.134;2022-07-24T01:02:38;16.13;;;12.10;;
20067;SDS011;10194;50.824;7.134;2022-07-24T01:05:07;15.70;;;11.68;;
20067;SDS011;10194;50.824;7.134;2022-07-24T01:07:37;15.55;;;11.40;;
20067;SDS011;10194;50.824;7.134;2022-07-24T01:10:03;14.30;;;11.00;;
20067;SDS011;10194;50.824;7.134;2022-07-24T01:12:30;14.00;;;10.30;;
20067;SDS011;10194;50.824;7.134;2022-07-24T01:14:58;16.05;;;11.45;;
20067;SDS011;10194;50.824;7.134;2022-07-24T01:17:24;16.13;;;11.48;;
20067;SDS011;10194;50.824;7.134;2022-07-24T01:19:56;15.38;;;11.38;;
20067;SDS011;10194;50.824;7.134;2022-07-24T01:22:22;13.57;;;10.45;;
20067;SDS011;10194;50.824;7.134;2022-07-24T01:24:50;15.18;;;10.93;;
20067;SDS011;10194;50.824;7.134;2022-07-24T01:27:16;15.48;;;10.50;;
20067;SDS011;10194;50.824;7.134;2022-07-24T01:29:43;13.73;;;10.52;;
20067;SDS011;10194;50.824;7.134;2022-07-24T01:32:09;13.20;;;10.52;;
20067;SDS011;10194;50.824;7.134;2022-07-24T01:34:35;17.67;;;10.75;;
20067;SDS011;10194;50.824;7.134;2022-07-24T01:37:01;15.63;;;11.13;;
20067;SDS011;10194;50.824;7.134;2022-07-24T01:39:27;15.98;;;10.65;;
20067;SDS011;10194;50.824;7.134;2022-07-24T01:41:53;12.73;;;10.63;;
20067;SDS011;10194;50.824;7.134;2022-07-24T01:44:19;14.45;;;11.07;;
20067;SDS011;10194;50.824;7.134;2022-07-24T01:46:45;17.10;;;11.40;;
20067;SDS011;10194;50.824;7.134;2022-07-24T01:49:11;15.43;;;12.02;;
20067;SDS011;10194;50.824;7.134;2022-07-24T01:51:37;17.92;;;12.27;;
20067;SDS011;10194;50.824;7.134;2022-07-24T01:54:03;17.13;;;11.82;;
20067;SDS011;10194;50.824;7.134;2022-07-24T01:56:29;14.35;;;10.85;;
20067;SDS011;10194;50.824;7.134;2022-07-24T01:58:57;17.42;;;11.43;;
20067;SDS011;10194;50.824;7.134;2022-07-24T02:01:23;16.95;;;11.23;;
20067;SDS011;10194;50.824;7.134;2022-07-24T02:03:50;17.35;;;11.52;;
20067;SDS011;10194;50.824;7.134;2022-07-24T02:06:15;17.40;;;11.80;;
20067;SDS011;10194;50.824;7.134;2022-07-24T02:08:42;14.13;;;11.00;;
20067;SDS011;10194;50.824;7.134;2022-07-24T02:11:08;14.70;;;11.65;;
20067;SDS011;10194;50.824;7.134;2022-07-24T02:13:33;13.20;;;10.55;;
20067;SDS011;10194;50.824;7.134;2022-07-24T02:15:59;14.63;;;11.18;;
20067;SDS011;10194;50.824;7.134;2022-07-24T02:18:25;17.13;;;10.57;;
20067;SDS011;10194;50.824;7.134;2022-07-24T02:20:52;14.15;;;10.73;;
20067;SDS011;10194;50.824;7.134;2022-07-24T02:23:18;15.23;;;10.10;;
20067;SDS011;10194;50.824;7.134;2022-07-24T02:25:45;12.73;;;10.43;;
20067;SDS011;10194;50.824;7.134;2022-07-24T02:28:12;14.88;;;10.07;;
20067;SDS011;10194;50.824;7.134;2022-07-24T02:30:39;12.45;;;10.13;;
20067;SDS011;10194;50.824;7.134;2022-07-24T02:33:05;13.30;;;10.63;;
20067;SDS011;10194;50.824;7.134;2022-07-24T02:35:32;13.23;;;10.25;;
20067;SDS011;10194;50.824;7.134;2022-07-24T02:37:58;13.52;;;10.25;;
20067;SDS011;10194;50.824;7.134;2022-07-24T02:40:24;14.07;;;10.32;;
20067;SDS011;10194;50.824;7.134;2022-07-24T02:42:49;12.20;;;9.95;;
20067;SDS011;10194;50.824;7.134;2022-07-24T02:45:15;16.25;;;11.05;;
20067;SDS011;10194;50.824;7.134;2022-07-24T02:47:51;14.60;;;10.40;;
20067;SDS011;10194;50.824;7.134;2022-07-24T02:54:00;12.90;;;10.27;;
20067;SDS011;10194;50.824;7.134;2022-07-24T02:56:26;13.35;;;10.60;;
20067;SDS011;10194;50.824;7.134;2022-07-24T02:58:51;13.68;;;10.63;;
20067;SDS011;10194;50.824;7.134;2022-07-24T03:01:17;13.45;;;10.57;;
20067;SDS011;10194;50.824;7.134;2022-07-24T03:03:43;14.23;;;10.52;;
20067;SDS011;10194;50.824;7.134;2022-07-24T03:06:09;13.68;;;10.73;;
20067;SDS011;10194;50.824;7.134;2022-07-24T03:08:34;12.98;;;10.73;;
20067;SDS011;10194;50.824;7.134;2022-07-24T03:11:00;13.02;;;10.23;;
20067;SDS011;10194;50.824;7.134;2022-07-24T03:13:26;13.50;;;10.23;;
20067;SDS011;10194;50.824;7.134;2022-07-24T03:15:52;17.55;;;10.82;;
20067;SDS011;10194;50.824;7.134;2022-07-24T03:18:17;14.27;;;11.02;;
20067;SDS011;10194;50.824;7.134;2022-07-24T03:20:43;14.40;;;10.82;;
20067;SDS011;10194;50.824;7.134;2022-07-24T03:23:09;12.90;;;10.63;;
20067;SDS011;10194;50.824;7.134;2022-07-24T03:25:35;13.65;;;10.10;;
20067;SDS011;10194;50.824;7.134;2022-07-24T03:28:00;14.90;;;10.95;;
20067;SDS011;10194;50.824;7.134;2022-07-24T03:30:26;13.30;;;10.38;;
20067;SDS011;10194;50.824;7.134;2022-07-24T03:32:52;13.30;;;10.63;;
20067;SDS011;10194;50.824;7.134;2022-07-24T03:35:17;14.52;;;10.85;;
20067;SDS011;10194;50.824;7.134;2022-07-24T03:37:43;15.63;;;11.02;;
20067;SDS011;10194;50.824;7.134;2022-07-24T03:40:09;15.23;;;11.35;;
20067;SDS011;10194;50.824;7.134;2022-07-24T03:42:36;16.85;;;11.43;;
20067;SDS011;10194;50.824;7.134;2022-07-24T03:45:02;18.25;;;11.80;;
20067;SDS011;10194;50.824;7.134;2022-07-24T03:47:28;13.32;;;10.32;;
20067;SDS011;10194;50.824;7.134;2022-07-24T03:49:54;13.13;;;10.68;;
20067;SDS011;10194;50.824;7.134;2022-07-24T03:52:20;14.82;;;10.93;;
20067;SDS011;10194;50.824;7.134;2022-07-24T03:54:45;12.07;;;10.65;;
20067;SDS011;10194;50.824;7.134;2022-07-24T03:57:11;12.68;;;10.15;;
20067;SDS011;10194;50.824;7.134;2022-07-24T03:59:37;12.40;;;10.20;;
20067;SDS011;10194;50.824;7.134;2022-07-24T04:02:03;15.55;;;10.23;;
20067;SDS011;10194;50.824;7.134;2022-07-24T04:04:29;17.67;;;11.18;;
20067;SDS011;10194;50.824;7.134;2022-07-24T04:06:54;12.02;;;9.77;;
20067;SDS011;10194;50.824;7.134;2022-07-24T04:09:20;12.57;;;10.10;;
20067;SDS011;10194;50.824;7.134;2022-07-24T04:11:46;12.00;;;10.10;;
20067;SDS011;10194;50.824;7.134;2022-07-24T04:14:12;13.27;;;10.00;;
20067;SDS011;10194;50.824;7.134;2022-07-24T04:16:38;12.95;;;9.35;;
20067;SDS011;10194;50.824;7.134;2022-07-24T04:19:04;13.32;;;9.80;;
20067;SDS011;10194;50.824;7.134;2022-07-24T04:21:30;12.32;;;9.90;;
20067;SDS011;10194;50.824;7.134;2022-07-24T04:23:55;12.45;;;9.60;;
20067;SDS011;10194;50.824;7.134;2022-07-24T04:26:21;12.38;;;9.13;;
20067;SDS011;10194;50.824;7.134;2022-07-24T04:28:47;13.23;;;9.40;;
20067;SDS011;10194;50.824;7.134;2022-07-24T04:31:13;11.27;;;9.10;;
20067;SDS011;10194;50.824;7.134;2022-07-24T04:33:39;11.73;;;9.40;;
20067;SDS011;10194;50.824;7.134;2022-07-24T04:36:05;13.40;;;9.60;;
20067;SDS011;10194;50.824;7.134;2022-07-24T04:38:31;13.00;;;9.07;;
20067;SDS011;10194;50.824;7.134;2022-07-24T04:40:59;11.13;;;9.40;;
20067;SDS011;10194;50.824;7.134;2022-07-24T04:43:25;11.20;;;8.95;;
20067;SDS011;10194;50.824;7.134;2022-07-24T04:45:51;10.00;;;8.77;;
20067;SDS011;10194;50.824;7.134;2022-07-24T04:48:16;13.23;;;9.70;;
20067;SDS011;10194;50.824;7.134;2022-07-24T04:50:42;11.48;;;8.85;;
20067;SDS011;10194;50.824;7.134;2022-07-24T04:53:08;11.95;;;9.20;;
20067;SDS011;10194;50.824;7.134;2022-07-24T04:55:34;11.52;;;8.65;;
20067;SDS011;10194;50.824;7.134;2022-07-24T04:58:00;11.90;;;9.43;;
20067;SDS011;10194;50.824;7.134;2022-07-24T05:00:25;10.73;;;8.65;;
20067;SDS011;10194;50.824;7.134;2022-07-24T05:02:51;13.10;;;9.25;;
20067;SDS011;10194;50.824;7.134;2022-07-24T05:05:17;11.23;;;8.48;;
20067;SDS011;10194;50.824;7.134;2022-07-24T05:07:43;11.15;;;8.80;;
20067;SDS011;10194;50.824;7.134;2022-07-24T05:10:09;11.95;;;8.30;;
20067;SDS011;10194;50.824;7.134;2022-07-24T05:12:35;10.60;;;8.32;;
20067;SDS011;10194;50.824;7.134;2022-07-24T05:15:02;10.10;;;8.00;;
20067;SDS011;10194;50.824;7.134;2022-07-24T05:17:30;10.38;;;8.25;;
20067;SDS011;10194;50.824;7.134;2022-07-24T05:19:56;8.85;;;7.53;;
20067;SDS011;10194;50.824;7.134;2022-07-24T05:22:22;11.75;;;8.50;;
20067;SDS011;10194;50.824;7.134;2022-07-24T05:24:47;11.48;;;7.43;;
20067;SDS011;10194;50.824;7.134;2022-07-24T05:27:13;9.27;;;7.43;;
20067;SDS011;10194;50.824;7.134;2022-07-24T05:29:39;10.48;;;7.85;;
20067;SDS011;10194;50.824;7.134;2022-07-24T05:32:06;9.77;;;7.93;;
20067;SDS011;10194;50.824;7.134;2022-07-24T05:34:31;10.93;;;8.13;;
20067;SDS011;10194;50.824;7.134;2022-07-24T05:36:57;9.93;;;8.10;;
20067;SDS011;10194;50.824;7.134;2022-07-24T05:39:23;9.38;;;7.35;;
20067;SDS011;10194;50.824;7.134;2022-07-24T05:41:49;11.23;;;7.47;;
20067;SDS011;10194;50.824;7.134;2022-07-24T05:44:17;11.32;;;7.65;;
20067;SDS011;10194;50.824;7.134;2022-07-24T05:46:43;9.88;;;7.80;;
20067;SDS011;10194;50.824;7.134;2022-07-24T05:49:09;9.35;;;7.28;;
20067;SDS011;10194;50.824;7.134;2022-07-24T05:51:34;10.70;;;7.60;;
20067;SDS011;10194;50.824;7.134;2022-07-24T05:54:00;9.60;;;7.65;;
20067;SDS011;10194;50.824;7.134;2022-07-24T05:56:27;8.70;;;7.38;;
20067;SDS011;10194;50.824;7.134;2022-07-24T05:58:54;8.95;;;7.30;;
20067;SDS011;10194;50.824;7.134;2022-07-24T06:01:19;13.98;;;7.82;;
20067;SDS011;10194;50.824;7.134;2022-07-24T06:03:45;8.70;;;7.03;;
20067;SDS011;10194;50.824;7.134;2022-07-24T06:06:11;9.95;;;7.28;;
20067;SDS011;10194;50.824;7.134;2022-07-24T06:08:37;9.38;;;6.80;;
20067;SDS011;10194;50.824;7.134;2022-07-24T06:11:03;7.88;;;6.90;;
20067;SDS011;10194;50.824;7.134;2022-07-24T06:13:28;13.07;;;7.28;;
20067;SDS011;10194;50.824;7.134;2022-07-24T06:15:54;8.65;;;7.10;;
20067;SDS011;10194;50.824;7.134;2022-07-24T06:18:20;11.15;;;7.13;;
20067;SDS011;10194;50.824;7.134;2022-07-24T06:20:46;9.45;;;6.63;;
20067;SDS011;10194;50.824;7.134;2022-07-24T06:23:11;8.98;;;6.63;;
20067;SDS011;10194;50.824;7.134;2022-07-24T06:25:37;8.65;;;6.60;;
20067;SDS011;10194;50.824;7.134;2022-07-24T06:28:03;9.85;;;6.57;;
20067;SDS011;10194;50.824;7.134;2022-07-24T06:30:29;7.93;;;6.40;;
20067;SDS011;10194;50.824;7.134;2022-07-24T06:32:56;7.55;;;6.20;;
20067;SDS011;10194;50.824;7.134;2022-07-24T06:35:23;10.10;;;6.63;;
20067;SDS011;10194;50.824;7.134;2022-07-24T06:37:50;7.38;;;6.20;;
20067;SDS011;10194;50.824;7.134;2022-07-24T06:40:17;7.50;;;6.20;;
20067;SDS011;10194;50.824;7.134;2022-07-24T06:42:44;10.00;;;6.75;;
20067;SDS011;10194;50.824;7.134;2022-07-24T06:45:11;7.45;;;6.32;;
20067;SDS011;10194;50.824;7.134;2022-07-24T06:47:38;9.18;;;5.97;;
20067;SDS011;10194;50.824;7.134;2022-07-24T06:50:04;6.22;;;5.43;;
20067;SDS011;10194;50.824;7.134;2022-07-24T06:52:30;7.10;;;5.70;;
20067;SDS011;10194;50.824;7.134;2022-07-24T06:54:56;6.10;;;5.50;;
20067;SDS011;10194;50.824;7.134;2022-07-24T06:57:23;6.43;;;5.43;;
20067;SDS011;10194;50.824;7.134;2022-07-24T06:59:51;6.82;;;5.78;;
20067;SDS011;10194;50.824;7.134;2022-07-24T07:02:18;6.43;;;5.70;;
20067;SDS011;10194;50.824;7.134;2022-07-24T07:04:44;7.35;;;5.72;;
20067;SDS011;10194;50.824;7.134;2022-07-24T07:07:10;7.35;;;5.88;;
20067;SDS011;10194;50.824;7.134;2022-07-24T07:09:36;6.15;;;5.30;;
20067;SDS011;10194;50.824;7.134;2022-07-24T07:12:03;5.70;;;5.10;;
20067;SDS011;10194;50.824;7.134;2022-07-24T07:14:29;5.90;;;5.28;;
20067;SDS011;10194;50.824;7.134;2022-07-24T07:16:55;6.03;;;5.07;;
20067;SDS011;10194;50.824;7.134;2022-07-24T07:19:21;6.75;;;5.32;;
20067;SDS011;10194;50.824;7.134;2022-07-24T07:21:47;6.93;;;5.55;;
20067;SDS011;10194;50.824;7.134;2022-07-24T07:24:13;8.07;;;5.78;;
20067;SDS011;10194;50.824;7.134;2022-07-24T07:26:39;5.38;;;4.88;;
20067;SDS011;10194;50.824;7.134;2022-07-24T07:29:05;6.03;;;4.93;;
20067;SDS011;10194;50.824;7.134;2022-07-24T07:31:31;5.40;;;4.90;;
20067;SDS011;10194;50.824;7.134;2022-07-24T07:33:57;5.40;;;4.90;;
20067;SDS011;10194;50.824;7.134;2022-07-24T07:36:23;5.72;;;5.22;;
20067;SDS011;10194;50.824;7.134;2022-07-24T07:38:50;5.85;;;5.20;;
20067;SDS011;10194;50.824;7.134;2022-07-24T07:41:16;6.40;;;5.40;;
20067;SDS011;10194;50.824;7.134;2022-07-24T07:43:44;6.20;;;5.03;;
20067;SDS011;10194;50.824;7.134;2022-07-24T07:46:14;6.18;;;5.07;;
20067;SDS011;10194;50.824;7.134;2022-07-24T07:48:40;5.68;;;5.18;;
20067;SDS011;10194;50.824;7.134;2022-07-24T07:51:09;7.95;;;5.85;;
20067;SDS011;10194;50.824;7.134;2022-07-24T07:53:34;6.70;;;5.40;;
20067;SDS011;10194;50.824;7.134;2022-07-24T07:56:00;8.23;;;5.75;;
20067;SDS011;10194;50.824;7.134;2022-07-24T07:58:27;6.88;;;5.30;;
20067;SDS011;10194;50.824;7.134;2022-07-24T08:00:53;5.95;;;5.03;;
20067;SDS011;10194;50.824;7.134;2022-07-24T08:03:19;6.28;;;5.60;;
20067;SDS011;10194;50.824;7.134;2022-07-24T08:05:45;7.43;;;5.38;;
20067;SDS011;10194;50.824;7.134;2022-07-24T08:08:11;6.47;;;5.75;;
20067;SDS011;10194;50.824;7.134;2022-07-24T08:10:37;8.23;;;5.75;;
20067;SDS011;10194;50.824;7.134;2022-07-24T08:13:03;8.77;;;5.43;;
20067;SDS011;10194;50.824;7.134;2022-07-24T08:15:29;8.98;;;5.53;;
20067;SDS011;10194;50.824;7.134;2022-07-24T08:17:55;7.15;;;5.47;;
20067;SDS011;10194;50.824;7.134;2022-07-24T08:20:23;6.72;;;5.65;;
20067;SDS011;10194;50.824;7.134;2022-07-24T08:22:50;6.70;;;5.43;;
20067;SDS011;10194;50.824;7.134;2022-07-24T08:25:17;6.30;;;5.70;;
20067;SDS011;10194;50.824;7.134;2022-07-24T08:27:43;5.93;;;5.32;;
20067;SDS011;10194;50.824;7.134;2022-07-24T08:30:10;8.27;;;6.03;;
20067;SDS011;10194;50.824;7.134;2022-07-24T08:32:37;8.05;;;6.28;;
20067;SDS011;10194;50.824;7.134;2022-07-24T08:35:03;5.88;;;5.22;;
20067;SDS011;10194;50.824;7.134;2022-07-24T08:37:37;6.38;;;5.63;;
20067;SDS011;10194;50.824;7.134;2022-07-24T08:40:05;6.93;;;5.30;;
20067;SDS011;10194;50.824;7.134;2022-07-24T08:42:34;6.05;;;5.45;;
20067;SDS011;10194;50.824;7.134;2022-07-24T08:45:01;6.13;;;5.47;;
20067;SDS011;10194;50.824;7.134;2022-07-24T08:47:31;8.07;;;5.80;;
20067;SDS011;10194;50.824;7.134;2022-07-24T08:49:58;5.80;;;5.28;;
20067;SDS011;10194;50.824;7.134;2022-07-24T08:52:25;5.90;;;5.22;;
20067;SDS011;10194;50.824;7.134;2022-07-24T08:54:52;8.27;;;6.10;;
20067;SDS011;10194;50.824;7.134;2022-07-24T08:57:19;7.20;;;6.43;;
20067;SDS011;10194;50.824;7.134;2022-07-24T08:59:45;6.53;;;5.90;;
20067;SDS011;10194;50.824;7.134;2022-07-24T09:02:11;8.23;;;6.05;;
20067;SDS011;10194;50.824;7.134;2022-07-24T09:04:41;6.88;;;6.18;;
20067;SDS011;10194;50.824;7.134;2022-07-24T09:07:11;6.20;;;5.60;;
20067;SDS011;10194;50.824;7.134;2022-07-24T09:09:41;8.10;;;5.57;;
20067;SDS011;10194;50.824;7.134;2022-07-24T09:12:32;6.78;;;6.07;;
20067;SDS011;10194;50.824;7.134;2022-07-24T09:15:01;7.72;;;6.00;;
20067;SDS011;10194;50.824;7.134;2022-07-24T09:17:36;7.00;;;5.82;;
20067;SDS011;10194;50.824;7.134;2022-07-24T09:20:19;6.55;;;5.80;;
20067;SDS011;10194;50.824;7.134;2022-07-24T09:22:48;7.45;;;5.45;;
20067;SDS011;10194;50.824;7.134;2022-07-24T09:25:19;10.70;;;6.20;;
20067;SDS011;10194;50.824;7.134;2022-07-24T09:27:52;6.78;;;6.13;;
20067;SDS011;10194;50.824;7.134;2022-07-24T09:33:01;7.47;;;6.15;;
20067;SDS011;10194;50.824;7.134;2022-07-24T09:35:36;6.93;;;6.28;;
20067;SDS011;10194;50.824;7.134;2022-07-24T09:38:07;8.77;;;5.90;;
20067;SDS011;10194;50.824;7.134;2022-07-24T09:40:39;7.93;;;5.85;;
20067;SDS011;10194;50.824;7.134;2022-07-24T09:45:57;6.03;;;5.43;;
20067;SDS011;10194;50.824;7.134;2022-07-24T09:48:28;6.47;;;5.88;;
20067;SDS011;10194;50.824;7.134;2022-07-24T09:51:01;6.72;;;6.00;;
20067;SDS011;10194;50.824;7.134;2022-07-24T09:53:35;7.15;;;5.78;;
20067;SDS011;10194;50.824;7.134;2022-07-24T09:56:06;6.97;;;6.03;;
20067;SDS011;10194;50.824;7.134;2022-07-24T10:01:22;7.10;;;6.20;;
20067;SDS011;10194;50.824;7.134;2022-07-24T10:03:51;8.43;;;6.38;;
20067;SDS011;10194;50.824;7.134;2022-07-24T10:06:20;7.32;;;5.90;;
20067;SDS011;10194;50.824;7.134;2022-07-24T10:08:51;6.90;;;6.18;;
20067;SDS011;10194;50.824;7.134;2022-07-24T10:11:17;7.38;;;6.45;;
20067;SDS011;10194;50.824;7.134;2022-07-24T10:13:44;7.05;;;6.35;;
20067;SDS011;10194;50.824;7.134;2022-07-24T10:21:32;6.88;;;6.18;;
20067;SDS011;10194;50.824;7.134;2022-07-24T10:29:16;8.32;;;6.57;;
20067;SDS011;10194;50.824;7.134;2022-07-24T10:31:48;8.05;;;6.03;;
20067;SDS011;10194;50.824;7.134;2022-07-24T10:37:11;6.65;;;5.97;;
20067;SDS011;10194;50.824;7.134;2022-07-24T10:53:30;7.97;;;5.88;;
20067;SDS011;10194;50.824;7.134;2022-07-24T10:59:07;8.25;;;6.10;;
20067;SDS011;10194;50.824;7.134;2022-07-24T11:01:37;6.10;;;5.38;;
20067;SDS011;10194;50.824;7.134;2022-07-24T11:07:03;7.68;;;6.55;;
20067;SDS011;10194;50.824;7.134;2022-07-24T11:12:33;6.82;;;6.13;;
20067;SDS011;10194;50.824;7.134;2022-07-24T11:15:09;7.20;;;5.90;;
20067;SDS011;10194;50.824;7.134;2022-07-24T11:17:53;7.57;;;6.13;;
20067;SDS011;10194;50.824;7.134;2022-07-24T11:20:20;7.18;;;5.70;;
20067;SDS011;10194;50.824;7.134;2022-07-24T11:22:48;7.15;;;5.65;;
20067;SDS011;10194;50.824;7.134;2022-07-24T11:25:20;8.98;;;6.50;;
20067;SDS011;10194;50.824;7.134;2022-07-24T11:27:49;8.18;;;5.57;;
20067;SDS011;10194;50.824;7.134;2022-07-24T11:30:27;6.22;;;5.60;;
20067;SDS011;10194;50.824;7.134;2022-07-24T11:32:56;6.65;;;5.57;;
20067;SDS011;10194;50.824;7.134;2022-07-24T11:35:28;5.70;;;5.13;;
20067;SDS011;10194;50.824;7.134;2022-07-24T11:38:03;9.20;;;5.30;;
20067;SDS011;10194;50.824;7.134;2022-07-24T11:40:31;5.20;;;4.70;;
20067;SDS011;10194;50.824;7.134;2022-07-24T11:42:59;5.47;;;4.97;;
20067;SDS011;10194;50.824;7.134;2022-07-24T11:45:30;5.90;;;5.30;;
20067;SDS011;10194;50.824;7.134;2022-07-24T11:47:57;5.68;;;5.05;;
20067;SDS011;10194;50.824;7.134;2022-07-24T11:50:23;5.82;;;5.15;;
20067;SDS011;10194;50.824;7.134;2022-07-24T11:52:51;6.78;;;5.30;;
20067;SDS011;10194;50.824;7.134;2022-07-24T11:55:21;6.82;;;5.30;;
20067;SDS011;10194;50.824;7.134;2022-07-24T11:57:52;6.60;;;5.32;;
20067;SDS011;10194;50.824;7.134;2022-07-24T12:00:22;6.68;;;5.05;;
20067;SDS011;10194;50.824;7.134;2022-07-24T12:02:52;6.05;;;4.97;;
20067;SDS011;10194;50.824;7.134;2022-07-24T12:05:29;5.85;;;5.18;;
20067;SDS011;10194;50.824;7.134;2022-07-24T12:07:58;6.30;;;5.20;;
20067;SDS011;10194;50.824;7.134;2022-07-24T12:10:28;7.63;;;5.00;;
20067;SDS011;10194;50.824;7.134;2022-07-24T12:12:55;5.75;;;5.15;;
20067;SDS011;10194;50.824;7.134;2022-07-24T12:15:22;6.47;;;5.80;;
20067;SDS011;10194;50.824;7.134;2022-07-24T12:20:37;6.82;;;5.28;;
20067;SDS011;10194;50.824;7.134;2022-07-24T12:23:08;6.43;;;5.03;;
20067;SDS011;10194;50.824;7.134;2022-07-24T12:25:36;7.05;;;5.80;;
20067;SDS011;10194;50.824;7.134;2022-07-24T12:28:13;5.90;;;5.10;;
20067;SDS011;10194;50.824;7.134;2022-07-24T12:30:43;6.72;;;5.47;;
20067;SDS011;10194;50.824;7.134;2022-07-24T12:33:23;7.35;;;5.32;;
20067;SDS011;10194;50.824;7.134;2022-07-24T12:38:34;7.00;;;5.85;;
20067;SDS011;10194;50.824;7.134;2022-07-24T12:41:12;5.78;;;5.22;;
20067;SDS011;10194;50.824;7.134;2022-07-24T12:46:13;5.65;;;5.05;;
20067;SDS011;10194;50.824;7.134;2022-07-24T12:48:39;7.45;;;5.13;;
20067;SDS011;10194;50.824;7.134;2022-07-24T12:51:05;6.10;;;5.05;;
20067;SDS011;10194;50.824;7.134;2022-07-24T12:53:38;5.40;;;4.72;;
20067;SDS011;10194;50.824;7.134;2022-07-24T12:56:07;6.82;;;5.10;;
20067;SDS011;10194;50.824;7.134;2022-07-24T12:58:48;8.02;;;5.68;;
20067;SDS011;10194;50.824;7.134;2022-07-24T13:01:17;5.93;;;5.32;;
20067;SDS011;10194;50.824;7.134;2022-07-24T13:03:57;5.78;;;5.10;;
20067;SDS011;10194;50.824;7.134;2022-07-24T13:06:38;5.63;;;5.03;;
20067;SDS011;10194;50.824;7.134;2022-07-24T13:09:07;6.47;;;5.18;;
20067;SDS011;10194;50.824;7.134;2022-07-24T13:11:35;6.03;;;5.30;;
20067;SDS011;10194;50.824;7.134;2022-07-24T13:14:03;6.53;;;5.68;;
20067;SDS011;10194;50.824;7.134;2022-07-24T13:16:30;6.13;;;5.53;;
20067;SDS011;10194;50.824;7.134;2022-07-24T13:19:00;7.97;;;5.07;;
20067;SDS011;10194;50.824;7.134;2022-07-24T13:21:27;5.45;;;4.93;;
20067;SDS011;10194;50.824;7.134;2022-07-24T13:23:54;6.45;;;5.57;;
20067;SDS011;10194;50.824;7.134;2022-07-24T13:26:20;6.55;;;5.30;;
20067;SDS011;10194;50.824;7.134;2022-07-24T13:28:47;7.13;;;5.53;;
20067;SDS011;10194;50.824;7.134;2022-07-24T13:31:13;6.35;;;5.03;;
20067;SDS011;10194;50.824;7.134;2022-07-24T13:33:39;6.13;;;5.43;;
20067;SDS011;10194;50.824;7.134;2022-07-24T13:36:05;8.27;;;4.97;;
20067;SDS011;10194;50.824;7.134;2022-07-24T13:38:32;6.03;;;5.43;;
20067;SDS011;10194;50.824;7.134;2022-07-24T13:40:58;6.00;;;5.40;;
20067;SDS011;10194;50.824;7.134;2022-07-24T13:43:24;7.15;;;5.53;;
20067;SDS011;10194;50.824;7.134;2022-07-24T13:45:53;6.25;;;5.32;;
20067;SDS011;10194;50.824;7.134;2022-07-24T13:48:19;5.45;;;4.95;;
20067;SDS011;10194;50.824;7.134;2022-07-24T13:50:44;5.70;;;5.10;;
20067;SDS011;10194;50.824;7.134;2022-07-24T13:53:10;5.30;;;4.80;;
20067;SDS011;10194;50.824;7.134;2022-07-24T13:55:36;5.95;;;5.30;;
20067;SDS011;10194;50.824;7.134;2022-07-24T13:58:02;8.00;;;5.53;;
20067;SDS011;10194;50.824;7.134;2022-07-24T14:00:28;6.78;;;5.50;;
20067;SDS011;10194;50.824;7.134;2022-07-24T14:02:54;6.55;;;5.32;;
20067;SDS011;10194;50.824;7.134;2022-07-24T14:05:22;5.60;;;5.03;;
20067;SDS011;10194;50.824;7.134;2022-07-24T14:07:49;7.25;;;4.95;;
20067;SDS011;10194;50.824;7.134;2022-07-24T14:10:15;5.82;;;5.22;;
20067;SDS011;10194;50.824;7.134;2022-07-24T14:12:41;7.10;;;5.32;;
20067;SDS011;10194;50.824;7.134;2022-07-24T14:15:07;5.97;;;5.38;;
20067;SDS011;10194;50.824;7.134;2022-07-24T14:17:34;9.18;;;5.55;;
20067;SDS011;10194;50.824;7.134;2022-07-24T14:20:01;5.90;;;5.30;;
20067;SDS011;10194;50.824;7.134;2022-07-24T14:22:28;7.50;;;5.28;;
20067;SDS011;10194;50.824;7.134;2022-07-24T14:24:54;6.07;;;5.47;;
20067;SDS011;10194;50.824;7.134;2022-07-24T14:27:19;6.40;;;4.80;;
20067;SDS011;10194;50.824;7.134;2022-07-24T14:29:45;6.20;;;5.30;;
20067;SDS011;10194;50.824;7.134;2022-07-24T14:32:11;5.22;;;4.72;;
20067;SDS011;10194;50.824;7.134;2022-07-24T14:34:37;7.07;;;5.40;;
20067;SDS011;10194;50.824;7.134;2022-07-24T14:37:02;6.80;;;6.07;;
20067;SDS011;10194;50.824;7.134;2022-07-24T14:39:28;6.05;;;4.93;;
20067;SDS011;10194;50.824;7.134;2022-07-24T14:41:55;5.43;;;4.93;;
20067;SDS011;10194;50.824;7.134;2022-07-24T14:44:22;5.70;;;5.10;;
20067;SDS011;10194;50.824;7.134;2022-07-24T14:46:48;6.15;;;5.55;;
20067;SDS011;10194;50.824;7.134;2022-07-24T14:49:14;5.82;;;5.20;;
20067;SDS011;10194;50.824;7.134;2022-07-24T14:51:40;5.88;;;5.00;;
20067;SDS011;10194;50.824;7.134;2022-07-24T14:54:07;6.10;;;4.90;;
20067;SDS011;10194;50.824;7.134;2022-07-24T14:56:34;6.97;;;5.07;;
20067;SDS011;10194;50.824;7.134;2022-07-24T14:59:01;5.32;;;4.82;;
20067;SDS011;10194;50.824;7.134;2022-07-24T15:01:27;7.50;;;5.30;;
20067;SDS011;10194;50.824;7.134;2022-07-24T15:03:53;5.32;;;4.85;;
20067;SDS011;10194;50.824;7.134;2022-07-24T15:06:19;5.65;;;5.15;;
20067;SDS011;10194;50.824;7.134;2022-07-24T15:08:45;7.85;;;5.60;;
20067;SDS011;10194;50.824;7.134;2022-07-24T15:11:12;7.25;;;5.00;;
20067;SDS011;10194;50.824;7.134;2022-07-24T15:13:38;6.75;;;5.47;;
20067;SDS011;10194;50.824;7.134;2022-07-24T15:16:05;6.00;;;5.40;;
20067;SDS011;10194;50.824;7.134;2022-07-24T15:18:33;6.22;;;5.07;;
20067;SDS011;10194;50.824;7.134;2022-07-24T15:20:58;5.78;;;5.18;;
20067;SDS011;10194;50.824;7.134;2022-07-24T15:23:24;5.07;;;4.60;;
20067;SDS011;10194;50.824;7.134;2022-07-24T15:25:50;6.47;;;5.28;;
20067;SDS011;10194;50.824;7.134;2022-07-24T15:28:17;5.35;;;4.85;;
20067;SDS011;10194;50.824;7.134;2022-07-24T15:30:43;5.75;;;5.05;;
20067;SDS011;10194;50.824;7.134;2022-07-24T15:33:08;5.50;;;4.80;;
20067;SDS011;10194;50.824;7.134;2022-07-24T15:35:34;5.13;;;4.63;;